Time;durP1;ratioP1;P1;durP2;ratioP2;P2;SDS_P1;SDS_P2;PMS_P1;PMS_P2;Temp;Humidity;BMP_temperature;BMP_pressure;BME280_temperature;BME280_humidity;BME280_pressure;Samples;Min_cycle;Max_cycle;Signal;HPM_P1;HPM_P2
2021/03/04 00:00:42;;;;;;;26.20;13.17;;;;;;;-0.51;77.17;99891.84;125614;1106;23261;-66
2021/03/04 00:03:13;;;;;;;26.10;13.70;;;;;;;-0.53;77.92;99893.86;125750;1106;23020;-66
2021/03/04 00:05:41;;;;;;;25.70;13.50;;;;;;;-0.56;77.25;99883.50;125653;1106;23861;-66
2021/03/04 00:08:09;;;;;;;24.70;13.50;;;;;;;-0.55;77.86;99889.69;125549;1106;23102;-65
2021/03/04 00:10:36;;;;;;;25.33;13.60;;;;;;;-0.60;78.20;99882.22;125551;1106;23197;-67
2021/03/04 00:13:04;;;;;;;23.07;13.40;;;;;;;-0.64;78.58;99875.55;125612;1106;23036;-69
2021/03/04 00:15:32;;;;;;;24.37;12.80;;;;;;;-0.67;78.31;99881.24;125599;1106;26093;-68
2021/03/04 00:18:00;;;;;;;25.77;13.07;;;;;;;-0.67;78.25;99875.06;125579;1107;23099;-68
2021/03/04 00:20:31;;;;;;;23.90;13.23;;;;;;;-0.68;78.90;99868.88;125664;1106;23011;-68
2021/03/04 00:22:59;;;;;;;31.47;13.00;;;;;;;-0.67;78.90;99864.36;125593;1106;23268;-69
2021/03/04 00:25:31;;;;;;;36.33;16.03;;;;;;;-0.66;79.64;99868.70;125628;1107;27424;-68
2021/03/04 00:27:58;;;;;;;33.60;16.80;;;;;;;-0.66;80.15;99864.18;125577;1108;23289;-67
2021/03/04 00:30:26;;;;;;;31.70;15.67;;;;;;;-0.64;80.32;99858.66;125572;1106;23081;-67
2021/03/04 00:32:54;;;;;;;28.43;14.67;;;;;;;-0.63;80.40;99853.12;125518;1106;24695;-67
2021/03/04 00:35:22;;;;;;;25.10;14.27;;;;;;;-0.60;79.95;99846.59;124622;1106;27364;-68
2021/03/04 00:37:50;;;;;;;32.03;14.07;;;;;;;-0.58;80.80;99848.09;128254;1106;24191;-66
2021/03/04 00:40:20;;;;;;;25.53;14.30;;;;;;;-0.58;80.58;99834.71;127004;1106;23020;-67
2021/03/04 00:42:47;;;;;;;28.30;14.67;;;;;;;-0.54;81.25;99837.84;128253;1105;22838;-67
2021/03/04 00:45:16;;;;;;;29.77;14.53;;;;;;;-0.53;80.53;99834.98;128410;1105;22809;-67
2021/03/04 00:48:05;;;;;;;31.30;15.60;;;;;;;-0.53;80.90;99832.31;128260;1106;22949;-68
2021/03/04 00:50:34;;;;;;;26.33;14.87;;;;;;;-0.51;81.39;99832.13;128337;1106;22837;-67
2021/03/04 00:53:02;;;;;;;30.20;15.20;;;;;;;-0.50;80.90;99820.42;128285;1106;22848;-67
2021/03/04 00:55:31;;;;;;;26.60;14.33;;;;;;;-0.50;81.57;99821.25;128310;1107;22900;-67
2021/03/04 00:57:58;;;;;;;34.87;15.50;;;;;;;-0.48;81.46;99805.85;128299;1106;22827;-67
2021/03/04 01:00:26;;;;;;;29.17;15.23;;;;;;;-0.47;80.72;99804.84;128317;1106;22841;-68
2021/03/04 01:02:54;;;;;;;28.00;14.40;;;;;;;-0.45;81.73;99801.98;128281;1106;22864;-67
2021/03/04 01:05:22;;;;;;;27.93;15.13;;;;;;;-0.44;82.07;99798.30;128350;1107;22819;-68
2021/03/04 01:07:52;;;;;;;28.67;15.87;;;;;;;-0.43;81.01;99791.91;128275;1105;22846;-68
2021/03/04 01:10:28;;;;;;;32.93;15.13;;;;;;;-0.42;81.57;99782.87;128315;1107;23043;-67
2021/03/04 01:12:56;;;;;;;28.77;15.43;;;;;;;-0.43;81.43;99773.17;128275;1106;22968;-67
2021/03/04 01:15:23;;;;;;;29.00;14.97;;;;;;;-0.42;82.28;99767.64;128354;1108;22900;-67
2021/03/04 01:17:51;;;;;;;28.97;14.27;;;;;;;-0.43;82.26;99763.30;128376;1106;23007;-67
2021/03/04 01:20:19;;;;;;;28.70;13.90;;;;;;;-0.42;82.15;99762.28;128259;1106;22889;-67
2021/03/04 01:22:46;;;;;;;30.50;14.83;;;;;;;-0.41;82.12;99761.27;128300;1106;22827;-66
2021/03/04 01:26:21;;;;;;;28.93;14.37;;;;;;;-0.44;82.46;99750.95;125485;1109;23050;-65
2021/03/04 01:28:48;;;;;;;31.87;15.83;;;;;;;-0.43;81.80;99749.91;125119;1112;23221;-66
2021/03/04 01:31:15;;;;;;;35.27;17.70;;;;;;;-0.42;82.19;99743.55;125199;1109;26307;-65
2021/03/04 01:33:43;;;;;;;30.43;16.10;;;;;;;-0.40;82.67;99740.70;125141;1109;23047;-65
2021/03/04 01:36:10;;;;;;;35.17;16.83;;;;;;;-0.40;83.07;99744.20;125304;1109;23038;-66
2021/03/04 01:38:38;;;;;;;37.90;17.17;;;;;;;-0.40;82.40;99738.85;125218;1109;23228;-66
2021/03/04 01:41:06;;;;;;;32.40;16.20;;;;;;;-0.38;82.63;99742.18;125192;1110;23043;-66
2021/03/04 01:43:34;;;;;;;28.00;14.93;;;;;;;-0.39;82.47;99734.33;125180;1109;23480;-66
2021/03/04 01:46:01;;;;;;;27.17;13.90;;;;;;;-0.39;82.38;99727.13;125181;1109;23046;-67
2021/03/04 01:48:48;;;;;;;28.73;15.40;;;;;;;-0.39;82.91;99724.45;125172;1111;23039;-64
2021/03/04 01:51:15;;;;;;;28.83;15.90;;;;;;;-0.38;82.49;99720.77;125191;1109;23118;-66
2021/03/04 01:53:42;;;;;;;38.03;17.80;;;;;;;-0.37;82.85;99727.78;125141;1111;23099;-66
2021/03/04 01:56:10;;;;;;;34.90;17.60;;;;;;;-0.36;82.96;99718.75;125215;1109;23781;-66
2021/03/04 01:58:37;;;;;;;35.13;18.43;;;;;;;-0.37;82.47;99714.41;125180;1112;23018;-66
2021/03/04 02:01:05;;;;;;;36.93;19.10;;;;;;;-0.36;83.04;99708.04;125195;1109;26823;-66
2021/03/04 02:03:33;;;;;;;38.13;18.27;;;;;;;-0.36;83.66;99707.20;125242;1110;23072;-66
2021/03/04 02:06:01;;;;;;;36.17;17.97;;;;;;;-0.34;83.37;99699.83;125124;1109;23046;-66
2021/03/04 02:08:33;;;;;;;36.37;17.10;;;;;;;-0.33;83.58;99695.30;128350;1110;22896;-66
2021/03/04 02:11:22;;;;;;;36.50;16.07;;;;;;;-0.33;83.38;99685.43;128220;1111;22957;-66
2021/03/04 02:14:04;;;;;;;39.43;18.13;;;;;;;-0.30;83.33;99682.39;128293;1112;24159;-66
2021/03/04 02:16:54;;;;;;;36.90;17.37;;;;;;;-0.26;83.96;99677.47;128231;1112;22832;-67
2021/03/04 02:19:42;;;;;;;32.83;15.65;;;;;;;-0.25;83.46;99671.11;128289;1111;23469;-66
2021/03/04 02:22:24;;;;;;;38.17;17.80;;;;;;;-0.23;83.32;99683.30;128108;1111;22913;-66
2021/03/04 02:25:05;;;;;;;37.30;17.50;;;;;;;-0.20;83.84;99668.72;128259;1111;23141;-66
2021/03/04 02:27:32;;;;;;;41.23;19.77;;;;;;;-0.18;84.15;99662.17;128206;1111;23668;-64
2021/03/04 02:30:05;;;;;;;42.10;20.33;;;;;;;-0.15;83.52;99667.16;128321;1110;22904;-65
2021/03/04 02:32:33;;;;;;;48.10;21.23;;;;;;;-0.13;84.23;99662.42;128194;1111;22881;-65
2021/03/04 02:35:07;;;;;;;44.73;21.67;;;;;;;-0.13;83.65;99649.03;128318;1110;22886;-65
2021/03/04 02:37:37;;;;;;;44.67;20.07;;;;;;;-0.11;83.45;99646.17;128237;1111;22854;-66
2021/03/04 02:40:06;;;;;;;42.47;19.73;;;;;;;-0.09;84.01;99636.94;128273;1109;22842;-65
2021/03/04 02:42:33;;;;;;;41.63;20.63;;;;;;;-0.05;84.47;99624.02;128250;1111;22832;-66
2021/03/04 02:45:02;;;;;;;42.93;21.03;;;;;;;-0.02;83.38;99629.00;128269;1111;22821;-66
2021/03/04 02:47:30;;;;;;;47.70;22.03;;;;;;;0.03;84.20;99631.09;124180;1111;26437;-66
2021/03/04 02:49:58;;;;;;;42.93;21.20;;;;;;;0.06;83.71;99625.38;124174;1111;23154;-66
2021/03/04 02:52:26;;;;;;;42.03;20.43;;;;;;;0.07;83.47;99614.47;128092;1112;22925;-67
2021/03/04 02:54:54;;;;;;;48.27;23.30;;;;;;;0.08;83.94;99610.78;128284;1112;23583;-67
2021/03/04 02:57:22;;;;;;;48.60;23.30;;;;;;;0.09;83.50;99609.77;128214;1111;22901;-67
2021/03/04 02:59:49;;;;;;;44.83;22.17;;;;;;;0.11;83.96;99599.70;128289;1111;22819;-67
2021/03/04 03:02:17;;;;;;;46.33;23.03;;;;;;;0.14;84.80;99598.49;128167;1111;22901;-67
2021/03/04 03:04:44;;;;;;;49.60;22.57;;;;;;;0.15;84.31;99581.37;128280;1111;22872;-67
2021/03/04 03:07:12;;;;;;;50.73;22.77;;;;;;;0.18;83.77;99581.83;128227;1112;22853;-66
2021/03/04 03:09:39;;;;;;;47.95;22.65;;;;;;;0.22;83.60;99574.25;128295;1111;22987;-67
2021/03/04 03:12:08;;;;;;;48.90;21.93;;;;;;;0.24;84.30;99569.53;128245;1112;22839;-67
2021/03/04 03:14:35;;;;;;;48.60;23.87;;;;;;;0.27;83.91;99564.63;128172;1111;23456;-67
2021/03/04 03:17:02;;;;;;;50.80;23.90;;;;;;;0.29;84.09;99559.89;128282;1111;22904;-68
2021/03/04 03:19:31;;;;;;;47.97;21.77;;;;;;;0.32;83.85;99556.83;128255;1107;22832;-68
2021/03/04 03:21:58;;;;;;;48.40;23.10;;;;;;;0.32;84.66;99562.19;128285;1108;22937;-68
2021/03/04 03:24:26;;;;;;;50.40;24.77;;;;;;;0.34;83.81;99559.32;128255;1107;22885;-67
2021/03/04 03:26:53;;;;;;;48.90;24.97;;;;;;;0.33;84.72;99555.81;128333;1108;22904;-67
2021/03/04 03:29:21;;;;;;;51.53;24.07;;;;;;;0.34;84.50;99554.80;128229;1108;22888;-68
2021/03/04 03:31:49;;;;;;;46.20;23.50;;;;;;;0.39;85.12;99554.23;128314;1108;23004;-68
2021/03/04 03:34:17;;;;;;;49.57;22.90;;;;;;;0.42;83.92;99542.30;128251;1108;23018;-68
2021/03/04 03:36:44;;;;;;;47.83;23.10;;;;;;;0.45;83.99;99533.85;128265;1108;22987;-68
2021/03/04 03:39:12;;;;;;;50.15;23.30;;;;;;;0.48;83.93;99533.47;128290;1108;22826;-68
2021/03/04 03:41:40;;;;;;;51.60;24.15;;;;;;;0.48;85.13;99530.79;128329;1107;22849;-68
2021/03/04 03:44:07;;;;;;;46.40;23.90;;;;;;;0.50;85.13;99520.71;128259;1108;22843;-68
2021/03/04 03:46:35;;;;;;;49.95;24.35;;;;;;;0.51;83.55;99517.84;128343;1108;23005;-68
2021/03/04 03:49:04;;;;;;;53.83;27.33;;;;;;;0.54;84.59;99505.91;128294;1107;23687;-68
2021/03/04 03:51:35;;;;;;;46.03;22.80;;;;;;;0.56;84.58;99506.55;128322;1108;22961;-68
2021/03/04 03:54:03;;;;;;;49.30;23.97;;;;;;;0.58;84.48;99505.30;128247;1107;22909;-65
2021/03/04 03:56:31;;;;;;;42.83;21.53;;;;;;;0.59;83.81;99498.92;128303;1108;22822;-67
2021/03/04 03:58:58;;;;;;;49.90;23.55;;;;;;;0.61;84.55;99501.41;128316;1107;22839;-67
2021/03/04 04:01:30;;;;;;;48.50;23.30;;;;;;;0.63;83.23;99499.38;128304;1108;23453;-67
2021/03/04 04:03:58;;;;;;;49.05;23.00;;;;;;;0.65;84.33;99481.24;128355;1108;22931;-67
2021/03/04 04:06:27;;;;;;;49.83;23.97;;;;;;;0.67;83.31;99479.20;128244;1107;24305;-68
2021/03/04 04:08:54;;;;;;;52.33;25.37;;;;;;;0.69;83.83;99467.27;128352;1108;23438;-67
2021/03/04 04:11:26;;;;;;;46.83;23.20;;;;;;;0.70;83.26;99465.41;128250;1107;22837;-67
2021/03/04 04:13:53;;;;;;;54.60;26.43;;;;;;;0.70;83.94;99462.73;128363;1107;22983;-69
2021/03/04 04:16:21;;;;;;;47.83;24.23;;;;;;;0.68;83.62;99443.32;128213;1107;22958;-69
2021/03/04 04:18:48;;;;;;;49.43;23.97;;;;;;;0.66;83.81;99435.47;128321;1108;22844;-69
2021/03/04 04:21:18;;;;;;;48.75;23.90;;;;;;;0.67;83.68;99438.98;128257;1107;22972;-69
2021/03/04 04:23:45;;;;;;;47.23;23.17;;;;;;;0.66;82.59;99434.64;128300;1108;22843;-69
2021/03/04 04:26:13;;;;;;;46.33;22.60;;;;;;;0.65;83.62;99431.13;128212;1108;22939;-69
2021/03/04 04:28:40;;;;;;;43.20;22.45;;;;;;;0.63;83.60;99424.30;128290;1107;22845;-69
2021/03/04 04:31:08;;;;;;;50.73;22.17;;;;;;;0.62;83.24;99420.80;128270;1108;22844;-69
2021/03/04 04:33:36;;;;;;;50.60;24.05;;;;;;;0.61;83.23;99411.09;128407;1107;22895;-69
2021/03/04 04:36:05;;;;;;;50.30;23.77;;;;;;;0.59;82.83;99407.77;128255;1107;22891;-69
2021/03/04 04:38:32;;;;;;;48.45;24.40;;;;;;;0.57;82.02;99403.66;128274;1107;22830;-69
2021/03/04 04:41:00;;;;;;;45.43;24.67;;;;;;;0.52;81.93;99401.56;128278;1107;22894;-66
2021/03/04 04:43:27;;;;;;;48.80;26.77;;;;;;;0.51;82.26;99407.95;128313;1107;22952;-66
2021/03/04 04:45:55;;;;;;;51.07;27.37;;;;;;;0.50;82.74;99408.14;128386;1107;22870;-66
2021/03/04 04:48:22;;;;;;;58.77;31.90;;;;;;;0.47;81.53;99395.12;128281;1107;22824;-66
2021/03/04 04:51:09;;;;;;;52.80;29.27;;;;;;;0.45;82.20;99402.52;128299;1108;23116;-66
2021/03/04 04:53:36;;;;;;;51.47;27.23;;;;;;;0.42;81.96;99400.27;127087;1107;23189;-64
2021/03/04 04:56:04;;;;;;;46.10;23.63;;;;;;;0.40;82.00;99395.09;126239;1108;23098;-67
2021/03/04 04:58:31;;;;;;;53.23;24.80;;;;;;;0.39;81.26;99393.44;126824;1108;23136;-66
2021/03/04 05:00:59;;;;;;;51.97;24.83;;;;;;;0.39;81.21;99389.92;126966;1107;23041;-67
2021/03/04 05:03:26;;;;;;;50.20;25.17;;;;;;;0.37;81.24;99391.97;126898;1107;23079;-67
2021/03/04 05:05:54;;;;;;;53.73;25.00;;;;;;;0.34;81.68;99382.46;126123;1107;23097;-67
2021/03/04 05:08:21;;;;;;;48.10;25.70;;;;;;;0.32;81.10;99389.86;125947;1107;23249;-67
2021/03/04 05:10:49;;;;;;;54.00;25.00;;;;;;;0.31;80.67;99381.00;126030;1108;23083;-65
2021/03/04 05:13:16;;;;;;;55.20;27.57;;;;;;;0.30;81.31;99382.02;125815;1108;23028;-67
2021/03/04 05:15:43;;;;;;;47.60;24.93;;;;;;;0.29;80.49;99372.32;125631;1107;23056;-66
2021/03/04 05:18:11;;;;;;;48.97;26.23;;;;;;;0.30;81.26;99367.79;125536;1108;27445;-65
2021/03/04 05:20:39;;;;;;;50.37;25.17;;;;;;;0.31;80.92;99364.09;125605;1107;23180;-66
2021/03/04 05:23:06;;;;;;;54.57;25.70;;;;;;;0.32;80.67;99355.03;125526;1109;23043;-65
2021/03/04 05:25:35;;;;;;;48.67;23.63;;;;;;;0.33;81.41;99357.52;125496;1107;23036;-66
2021/03/04 05:28:02;;;;;;;53.40;26.27;;;;;;;0.37;80.95;99359.81;125600;1107;23106;-65
2021/03/04 05:30:29;;;;;;;52.37;25.70;;;;;;;0.39;80.99;99358.59;125563;1107;28546;-65
2021/03/04 05:32:57;;;;;;;59.73;28.57;;;;;;;0.41;81.71;99355.72;125544;1107;23043;-66
2021/03/04 05:35:25;;;;;;;51.80;26.00;;;;;;;0.45;81.54;99351.60;125653;1108;23827;-65
2021/03/04 05:37:52;;;;;;;51.43;28.57;;;;;;;0.47;81.99;99349.55;125546;1108;23103;-65
2021/03/04 05:40:20;;;;;;;56.93;27.23;;;;;;;0.51;81.29;99342.78;125498;1108;27421;-66
2021/03/04 05:42:47;;;;;;;53.10;26.33;;;;;;;0.56;81.62;99340.35;125682;1108;22996;-66
2021/03/04 05:45:15;;;;;;;54.17;25.20;;;;;;;0.58;81.56;99335.59;125622;1109;23055;-67
2021/03/04 05:47:43;;;;;;;50.67;25.33;;;;;;;0.64;81.42;99326.77;128324;1107;22866;-68
2021/03/04 05:50:16;;;;;;;50.10;24.33;;;;;;;0.69;81.43;99319.80;128257;1107;23044;-68
2021/03/04 05:52:47;;;;;;;53.33;26.43;;;;;;;0.78;82.56;99314.25;128373;1108;22883;-67
2021/03/04 05:55:15;;;;;;;49.90;25.20;;;;;;;0.84;81.40;99330.37;128318;1107;23806;-67
2021/03/04 05:57:45;;;;;;;57.25;27.70;;;;;;;0.91;81.44;99325.02;128372;1109;22847;-67
2021/03/04 06:00:14;;;;;;;55.25;29.10;;;;;;;1.00;81.65;99313.11;128217;1109;22882;-68
2021/03/04 06:02:42;;;;;;;59.80;27.90;;;;;;;1.06;82.04;99318.48;128308;1107;22867;-68
2021/03/04 06:05:13;;;;;;;56.45;29.70;;;;;;;1.13;82.01;99317.69;128189;1107;23789;-62
2021/03/04 06:07:44;;;;;;;60.80;31.43;;;;;;;1.19;80.91;99320.37;125512;1109;23148;-67
2021/03/04 06:10:14;;;;;;;68.77;31.90;;;;;;;1.26;81.21;99312.34;125630;1107;23055;-67
2021/03/04 06:12:42;;;;;;;64.55;33.35;;;;;;;1.32;81.00;99311.52;125562;1108;22979;-67
2021/03/04 06:15:10;;;;;;;64.67;31.93;;;;;;;1.36;81.68;99310.92;125572;1107;23183;-67
2021/03/04 06:17:38;;;;;;;63.80;30.60;;;;;;;1.44;81.67;99299.17;125622;1108;23050;-69
2021/03/04 06:20:07;;;;;;;63.55;31.20;;;;;;;1.53;81.18;99297.11;125601;1109;23188;-69
2021/03/04 06:22:38;;;;;;;64.13;32.60;;;;;;;1.63;81.31;99297.52;128297;1107;22882;-72
2021/03/04 06:25:08;;;;;;;63.25;30.85;;;;;;;1.71;81.40;99295.47;128251;1107;22993;-69
2021/03/04 06:27:39;;;;;;;57.70;29.80;;;;;;;1.80;81.87;99279.14;128291;1107;22825;-74
2021/03/04 06:30:08;;;;;;;58.70;29.15;;;;;;;1.89;81.90;99275.19;128180;1107;22937;-71
2021/03/04 06:32:36;;;;;;;57.47;29.07;;;;;;;1.99;81.75;99265.70;128299;1108;22828;-70
2021/03/04 06:35:11;;;;;;;58.37;30.00;;;;;;;2.07;81.16;99260.09;128361;1107;23530;-70
2021/03/04 06:37:43;;;;;;;55.90;29.47;;;;;;;2.14;80.22;99254.72;128189;1107;22892;-71
2021/03/04 06:40:26;;;;;;;56.53;28.77;;;;;;;2.23;80.23;99239.17;128330;1107;23360;-72
2021/03/04 06:42:54;;;;;;;56.37;29.47;;;;;;;2.31;80.30;99239.76;128282;1108;22887;-72
2021/03/04 06:45:25;;;;;;;58.10;28.50;;;;;;;2.39;80.38;99230.66;128279;1107;22898;-71
2021/03/04 06:48:04;;;;;;;55.73;27.73;;;;;;;2.48;79.83;99232.88;128214;1107;22814;-71
2021/03/04 06:50:31;;;;;;;51.55;28.15;;;;;;;2.59;79.98;99236.79;128239;1107;22924;-72
2021/03/04 06:53:13;;;;;;;49.27;26.03;;;;;;;2.68;80.58;99232.80;128102;1107;22906;-71
2021/03/04 06:55:48;;;;;;;55.47;28.03;;;;;;;2.78;80.00;99219.71;125763;1108;23434;-71
2021/03/04 06:58:22;;;;;;;55.30;28.35;;;;;;;2.90;80.26;99219.02;125698;1107;23119;-69
2021/03/04 07:01:14;;;;;;;57.93;27.73;;;;;;;3.00;79.24;99220.22;125754;1108;23092;-71
2021/03/04 07:03:52;;;;;;;53.20;28.65;;;;;;;3.11;79.27;99210.62;125550;1107;23048;-73
2021/03/04 07:06:36;;;;;;;55.55;28.85;;;;;;;3.21;79.20;99210.95;125581;1107;23523;-72
2021/03/04 07:09:05;;;;;;;52.40;27.50;;;;;;;3.30;79.19;99203.45;128384;1107;22926;-73
2021/03/04 07:11:44;;;;;;;52.55;27.05;;;;;;;3.39;79.18;99197.56;128263;1107;23036;-73
2021/03/04 07:14:11;;;;;;;58.65;27.75;;;;;;;3.47;78.54;99197.28;128244;1107;22948;-72
2021/03/04 07:16:45;;;;;;;51.40;27.00;;;;;;;3.57;78.11;99196.80;128307;1109;22840;-73
2021/03/04 07:19:14;;;;;;;52.20;26.95;;;;;;;3.64;78.13;99183.26;125522;1108;23262;-72
2021/03/04 07:21:46;;;;;;;49.43;25.83;;;;;;;3.73;77.86;99185.47;125542;1109;26565;-72
2021/03/04 07:24:14;;;;;;;50.95;26.45;;;;;;;3.83;77.40;99182.25;125636;1108;23335;-71
2021/03/04 07:26:42;;;;;;;54.03;26.83;;;;;;;3.90;77.38;99181.12;125545;1108;23007;-70
2021/03/04 07:29:11;;;;;;;54.70;27.80;;;;;;;3.99;77.23;99168.20;125515;1108;27632;-70
2021/03/04 07:31:42;;;;;;;57.20;28.70;;;;;;;4.10;76.44;99169.31;125553;1107;24688;-70
2021/03/04 07:34:11;;;;;;;53.23;28.80;;;;;;;4.16;76.62;99157.64;128257;1108;22821;-70
2021/03/04 07:36:39;;;;;;;51.53;27.93;;;;;;;4.24;76.01;99158.15;128273;1109;22891;-71
2021/03/04 07:39:07;;;;;;;52.70;26.83;;;;;;;4.33;75.73;99150.56;128180;1108;23622;-70
2021/03/04 07:41:38;;;;;;;50.65;27.80;;;;;;;4.41;75.87;99144.05;128329;1107;22811;-71
2021/03/04 07:44:06;;;;;;;48.30;26.10;;;;;;;4.50;75.21;99151.59;128184;1107;23576;-71
2021/03/04 07:46:35;;;;;;;44.65;24.35;;;;;;;4.59;75.14;99147.55;128333;1107;23740;-71
2021/03/04 07:49:05;;;;;;;48.55;25.05;;;;;;;4.68;74.75;99134.55;128208;1108;23666;-71
2021/03/04 07:51:46;;;;;;;45.80;24.00;;;;;;;4.78;74.30;99131.28;128300;1108;22883;-70
2021/03/04 07:54:14;;;;;;;45.65;23.15;;;;;;;4.87;73.90;99124.52;128220;1107;23479;-70
2021/03/04 07:56:42;;;;;;;46.40;24.70;;;;;;;4.96;74.20;99120.42;128278;1107;22866;-71
2021/03/04 07:59:11;;;;;;;44.60;24.40;;;;;;;5.06;73.65;99117.14;128160;1109;22885;-71
2021/03/04 08:01:43;;;;;;;50.10;24.35;;;;;;;5.15;73.34;99108.49;128366;1107;22819;-71
2021/03/04 08:04:30;;;;;;;43.03;23.90;;;;;;;5.25;72.80;99110.61;128230;1107;22948;-70
2021/03/04 08:06:58;;;;;;;41.80;24.40;;;;;;;5.34;72.23;99104.61;128350;1108;22956;-71
2021/03/04 08:09:35;;;;;;;48.93;24.00;;;;;;;5.41;72.13;99092.88;128215;1107;24393;-70
2021/03/04 08:12:12;;;;;;;46.55;25.00;;;;;;;5.47;72.09;99081.97;128254;1108;23573;-71
2021/03/04 08:14:41;;;;;;;44.20;23.77;;;;;;;5.54;71.38;99085.36;128233;1107;22936;-71
2021/03/04 08:17:08;;;;;;;42.35;23.70;;;;;;;5.60;71.93;99086.30;128274;1107;23020;-70
2021/03/04 08:19:36;;;;;;;44.95;24.30;;;;;;;5.67;71.40;99084.28;128152;1108;22938;-71
2021/03/04 08:22:07;;;;;;;44.50;24.40;;;;;;;5.74;71.05;99084.17;128381;1107;22889;-71
2021/03/04 08:24:36;;;;;;;41.40;22.70;;;;;;;5.80;70.20;99084.03;128241;1107;23000;-71
2021/03/04 08:27:07;;;;;;;38.77;21.87;;;;;;;5.83;70.17;99072.75;128331;1108;23413;-71
2021/03/04 08:29:46;;;;;;;47.80;23.55;;;;;;;5.89;69.43;99074.54;128292;1108;23484;-70
2021/03/04 08:32:14;;;;;;;41.53;23.60;;;;;;;5.94;69.67;99065.69;128357;1107;23000;-70
2021/03/04 08:34:42;;;;;;;44.95;24.45;;;;;;;5.96;69.81;99064.40;128370;1107;22779;-70
2021/03/04 08:37:23;;;;;;;47.30;24.10;;;;;;;6.00;69.42;99056.64;128225;1108;22898;-71
2021/03/04 08:39:59;;;;;;;38.75;23.40;;;;;;;6.04;68.76;99055.11;128330;1107;24506;-71
2021/03/04 08:42:26;;;;;;;48.47;25.47;;;;;;;6.07;68.52;99054.60;128186;1107;22827;-71
2021/03/04 08:44:54;;;;;;;47.90;26.10;;;;;;;6.07;68.78;99051.08;128382;1107;22814;-71
2021/03/04 08:47:21;;;;;;;44.40;24.80;;;;;;;6.07;68.42;99061.89;128225;1107;22992;-69
2021/03/04 08:49:56;;;;;;;45.60;26.63;;;;;;;6.09;68.56;99054.36;128407;1108;22912;-69
2021/03/04 08:52:25;;;;;;;47.97;25.43;;;;;;;6.10;68.92;99050.59;128266;1107;23607;-68
2021/03/04 08:54:55;;;;;;;45.55;25.45;;;;;;;6.13;68.94;99047.42;128376;1107;22830;-68
2021/03/04 08:57:27;;;;;;;44.77;25.20;;;;;;;6.16;68.43;99046.95;128310;1107;22860;-68
2021/03/04 09:00:21;;;;;;;45.80;24.40;;;;;;;6.19;68.44;99033.77;128311;1108;22879;-68
2021/03/04 09:02:48;;;;;;;45.20;24.10;;;;;;;6.24;68.52;99035.73;128239;1107;23508;-73
2021/03/04 09:05:21;;;;;;;45.50;24.10;;;;;;;6.27;68.07;99032.55;128341;1108;22872;-68
2021/03/04 09:07:50;;;;;;;42.27;22.03;;;;;;;6.31;68.34;99012.89;128234;1108;23619;-68
2021/03/04 09:10:17;;;;;;;42.85;23.15;;;;;;;6.36;68.54;99006.73;128397;1108;22973;-69
2021/03/04 09:12:45;;;;;;;40.87;23.67;;;;;;;6.43;68.30;99007.41;128308;1107;23645;-69
2021/03/04 09:15:14;;;;;;;40.45;23.95;;;;;;;6.48;67.82;98991.28;128344;1108;22891;-69
2021/03/04 09:17:45;;;;;;;44.15;24.00;;;;;;;6.53;67.76;98991.34;128256;1107;22953;-69
2021/03/04 09:20:14;;;;;;;41.77;25.23;;;;;;;6.57;68.01;98978.97;128356;1108;22889;-69
2021/03/04 09:22:42;;;;;;;44.45;24.95;;;;;;;6.61;66.95;98977.42;128231;1107;22880;-71
2021/03/04 09:25:11;;;;;;;42.25;22.95;;;;;;;6.64;67.49;98976.91;128281;1107;22928;-67
2021/03/04 09:27:39;;;;;;;43.45;24.20;;;;;;;6.67;66.83;98987.25;128207;1107;23157;-68
2021/03/04 09:30:07;;;;;;;50.25;26.40;;;;;;;6.68;66.98;98986.19;128285;1107;22819;-67
2021/03/04 09:32:35;;;;;;;43.35;25.75;;;;;;;6.73;66.87;98974.63;128260;1107;22865;-67
2021/03/04 09:35:12;;;;;;;48.00;27.00;;;;;;;6.77;67.10;98970.38;128354;1108;23044;-67
2021/03/04 09:37:40;;;;;;;42.08;25.12;;;;;;;6.85;67.64;98961.00;128287;1107;22820;-66
2021/03/04 09:40:21;;;;;;;46.53;25.60;;;;;;;6.92;67.03;98957.06;128317;1108;23001;-66
2021/03/04 09:42:49;;;;;;;49.90;25.85;;;;;;;6.99;67.10;98956.87;128253;1107;23073;-68
2021/03/04 09:45:17;;;;;;;39.20;22.90;;;;;;;7.07;66.77;98948.31;128317;1108;23709;-70
2021/03/04 09:47:48;;;;;;;46.05;27.20;;;;;;;7.13;66.29;98949.22;128275;1107;22938;-72
2021/03/04 09:50:28;;;;;;;46.70;25.95;;;;;;;7.19;66.20;98937.40;128356;1107;22874;-71
2021/03/04 09:53:06;;;;;;;47.13;25.77;;;;;;;7.24;65.85;98932.03;128297;1107;22966;-70
2021/03/04 09:55:37;;;;;;;41.00;24.30;;;;;;;7.29;65.89;98926.69;128336;1107;22930;-69
2021/03/04 09:58:15;;;;;;;43.90;25.85;;;;;;;7.32;65.56;98918.06;128335;1107;23642;-70
2021/03/04 10:00:43;;;;;;;43.50;25.15;;;;;;;7.37;65.47;98918.92;128367;1107;22976;-69
2021/03/04 10:03:32;;;;;;;42.50;25.50;;;;;;;7.43;65.23;98914.40;128278;1107;23036;-69
2021/03/04 10:06:01;;;;;;;44.65;25.65;;;;;;;7.48;64.34;98914.47;128310;1106;23441;-70
2021/03/04 10:08:41;;;;;;;46.20;27.45;;;;;;;7.52;64.46;98912.05;128311;1108;22889;-70
2021/03/04 10:11:20;;;;;;;42.70;25.35;;;;;;;7.54;64.73;98908.02;128307;1108;22872;-71
2021/03/04 10:13:47;;;;;;;45.90;25.60;;;;;;;7.58;64.69;98908.34;128042;1107;22889;-71
2021/03/04 10:16:15;;;;;;;54.35;27.05;;;;;;;7.62;64.10;98904.88;128407;1107;23680;-70
2021/03/04 10:18:52;;;;;;;44.97;25.57;;;;;;;7.65;63.95;98892.69;128267;1107;22811;-70
2021/03/04 10:21:19;;;;;;;42.45;26.75;;;;;;;7.70;63.67;98892.75;128374;1107;23167;-70
2021/03/04 10:23:49;;;;;;;41.90;25.95;;;;;;;7.73;63.51;98884.94;128330;1107;23999;-70
2021/03/04 10:26:17;;;;;;;45.90;25.70;;;;;;;7.77;63.36;98877.94;128056;1108;24109;-72
2021/03/04 10:28:44;;;;;;;48.15;27.20;;;;;;;7.81;63.56;98875.50;128336;1108;22904;-72
2021/03/04 10:31:12;;;;;;;48.15;25.05;;;;;;;7.83;63.42;98867.94;128305;1108;23019;-72
2021/03/04 10:33:40;;;;;;;44.65;25.95;;;;;;;7.87;63.95;98858.22;128362;1107;22828;-71
2021/03/04 10:36:12;;;;;;;48.30;28.05;;;;;;;7.94;63.40;98855.28;128291;1108;22828;-71
2021/03/04 10:38:40;;;;;;;40.55;25.15;;;;;;;7.97;63.41;98854.78;128405;1107;23457;-71
2021/03/04 10:41:09;;;;;;;43.23;25.53;;;;;;;8.01;62.92;98847.77;128296;1107;22886;-70
2021/03/04 10:43:37;;;;;;;46.30;25.75;;;;;;;8.06;62.46;98843.22;128321;1107;22830;-71
2021/03/04 10:46:04;;;;;;;40.07;25.07;;;;;;;8.12;63.19;98838.64;128247;1107;22891;-70
2021/03/04 10:48:32;;;;;;;38.20;24.60;;;;;;;8.16;62.30;98829.73;128385;1108;23658;-70
2021/03/04 10:51:00;;;;;;;44.20;25.65;;;;;;;8.24;61.93;98814.85;128343;1107;22824;-70
2021/03/04 10:53:27;;;;;;;40.55;24.05;;;;;;;8.29;61.92;98817.61;128333;1107;23802;-69
2021/03/04 10:55:55;;;;;;;38.00;23.87;;;;;;;8.34;61.96;98808.73;128285;1108;22824;-71
2021/03/04 10:58:23;;;;;;;41.10;25.55;;;;;;;8.39;62.51;98804.13;128341;1108;22917;-71
2021/03/04 11:00:51;;;;;;;45.40;26.05;;;;;;;8.45;62.16;98794.95;128180;1107;23074;-71
2021/03/04 11:03:20;;;;;;;43.25;26.25;;;;;;;8.52;61.89;98792.00;128350;1107;23026;-71
2021/03/04 11:05:48;;;;;;;38.90;23.85;;;;;;;8.58;61.62;98790.14;128312;1108;23746;-71
2021/03/04 11:08:16;;;;;;;41.85;23.75;;;;;;;8.63;61.30;98793.72;128399;1107;22805;-70
2021/03/04 11:10:46;;;;;;;46.40;25.57;;;;;;;8.66;61.08;98790.45;127410;1107;23115;-69
2021/03/04 11:13:16;;;;;;;44.35;24.10;;;;;;;8.68;60.57;98796.44;125692;1109;23242;-70
2021/03/04 11:15:44;;;;;;;40.30;24.25;;;;;;;8.69;60.88;98798.08;126963;1107;22958;-69
2021/03/04 11:18:12;;;;;;;43.60;23.63;;;;;;;8.69;60.63;98806.22;127131;1107;23482;-69
2021/03/04 11:20:41;;;;;;;40.40;23.85;;;;;;;8.66;59.95;98795.88;127179;1107;23103;-71
2021/03/04 11:23:08;;;;;;;44.05;25.05;;;;;;;8.63;59.96;98796.43;127100;1107;23096;-70
2021/03/04 11:25:38;;;;;;;41.30;24.00;;;;;;;8.59;60.50;98792.59;126575;1107;23084;-68
2021/03/04 11:28:08;;;;;;;44.30;25.50;;;;;;;8.56;60.34;98776.83;125835;1108;23675;-70